Time;durP1;ratioP1;P1;durP2;ratioP2;P2;SDS_P1;SDS_P2;PMS_P1;PMS_P2;Temp;Humidity;BMP_temperature;BMP_pressure;BME280_temperature;BME280_humidity;BME280_pressure;Samples;Min_cycle;Max_cycle;Signal;HPM_P1;HPM_P2
2023/02/20 00:01:50;;;;;;;;;;;8.20;90.90;;;;;;5033304;28;19913;-78
2023/02/20 00:04:16;;;;;;;;;;;8.20;91.00;;;;;;5038746;28;19920;-78
2023/02/20 00:06:42;;;;;;;;;;;8.20;91.10;;;;;;5039117;28;19920;-79
2023/02/20 00:09:07;;;;;;;;;;;8.20;91.20;;;;;;5038619;28;20434;-78
2023/02/20 00:11:33;;;;;;;;;;;8.20;91.20;;;;;;5039746;28;19941;-77
2023/02/20 00:13:58;;;;;;;;;;;8.20;91.00;;;;;;5041479;28;19909;-78
2023/02/20 00:16:24;;;;;;;;;;;8.20;91.10;;;;;;5038964;28;19916;-78
2023/02/20 00:18:49;;;;;;;;;;;8.20;91.00;;;;;;5035957;28;20613;-78
2023/02/20 00:21:15;;;;;;;;;;;8.20;91.10;;;;;;5025035;28;20231;-78
2023/02/20 00:23:40;;;;;;;;;;;8.20;91.10;;;;;;5042216;28;20419;-79
2023/02/20 00:26:10;;;;;;;;;;;8.20;90.90;;;;;;5039465;28;19910;-78
2023/02/20 00:28:37;;;;;;;;;;;8.20;91.10;;;;;;5037676;28;19909;-77
2023/02/20 00:31:02;;;;;;;;;;;8.20;91.10;;;;;;5038541;28;19969;-78
2023/02/20 00:33:30;;;;;;;;;;;8.20;91.10;;;;;;5037203;28;19936;-78
2023/02/20 00:35:55;;;;;;;;;;;8.20;91.20;;;;;;5036266;28;19913;-79
2023/02/20 00:38:21;;;;;;;;;;;8.20;91.30;;;;;;5018737;28;19940;-79
2023/02/20 00:40:46;;;;;;;;;;;8.10;91.20;;;;;;5022304;28;19909;-78
2023/02/20 00:43:12;;;;;;;;;;;8.10;91.30;;;;;;5032021;28;19952;-78
2023/02/20 00:45:37;;;;;;;;;;;8.10;91.30;;;;;;5038608;28;20295;-80
2023/02/20 00:48:03;;;;;;;;;;;8.10;91.30;;;;;;5039248;28;19909;-79
2023/02/20 00:50:29;;;;;;;;;;;8.10;91.40;;;;;;5029940;28;19935;-79
2023/02/20 00:52:54;;;;;;;;;;;8.10;91.40;;;;;;5026795;28;20003;-79
2023/02/20 00:55:20;;;;;;;;;;;8.10;91.40;;;;;;5036816;28;20303;-77
2023/02/20 00:57:45;;;;;;;;;;;8.10;91.40;;;;;;5039045;28;19915;-79
2023/02/20 01:00:21;;;;;;;;;;;8.10;91.40;;;;;;5037763;28;19924;-78
2023/02/20 01:02:47;;;;;;;;;;;8.10;91.30;;;;;;5038839;28;19916;-78
2023/02/20 01:05:13;;;;;;;;;;;8.10;91.40;;;;;;5040568;28;19910;-78
2023/02/20 01:07:38;;;;;;;;;;;8.10;91.40;;;;;;5037735;28;19941;-77
2023/02/20 01:10:04;;;;;;;;;;;8.10;91.40;;;;;;5038440;28;20384;-79
2023/02/20 01:12:29;;;;;;;;;;;8.10;91.50;;;;;;5040243;28;19988;-78
2023/02/20 01:14:55;;;;;;;;;;;8.00;91.50;;;;;;5037681;28;19955;-78
2023/02/20 01:17:20;;;;;;;;;;;8.00;91.40;;;;;;5043793;28;19958;-76
2023/02/20 01:19:46;;;;;;;;;;;8.00;91.50;;;;;;5033333;28;19910;-77
2023/02/20 01:22:11;;;;;;;;;;;8.00;91.60;;;;;;5022544;28;19910;-76
2023/02/20 01:24:37;;;;;;;;;;;8.00;91.60;;;;;;5033001;28;19917;-75
2023/02/20 01:27:02;;;;;;;;;;;8.00;91.60;;;;;;5042372;28;19909;-76
2023/02/20 01:29:28;;;;;;;;;;;8.00;91.40;;;;;;5038630;28;20337;-78
2023/02/20 01:31:53;;;;;;;;;;;8.00;91.60;;;;;;5038172;28;19976;-78
2023/02/20 01:34:19;;;;;;;;;;;8.00;91.70;;;;;;5037608;28;19915;-79
2023/02/20 01:36:46;;;;;;;;;;;8.00;91.80;;;;;;5036574;28;19916;-76
2023/02/20 01:39:12;;;;;;;;;;;8.00;91.80;;;;;;5037299;28;19952;-78
2023/02/20 01:41:38;;;;;;;;;;;8.00;91.90;;;;;;5036736;28;19917;-77
2023/02/20 01:44:03;;;;;;;;;;;8.00;91.90;;;;;;5035582;28;19913;-77
2023/02/20 01:46:29;;;;;;;;;;;8.00;92.00;;;;;;5039540;28;19917;-80
2023/02/20 01:48:59;;;;;;;;;;;7.90;92.00;;;;;;5041169;28;20311;-75
2023/02/20 01:51:26;;;;;;;;;;;8.00;92.00;;;;;;5029861;28;19910;-77
2023/02/20 01:53:51;;;;;;;;;;;8.00;92.10;;;;;;5038414;28;19914;-78
2023/02/20 01:56:17;;;;;;;;;;;7.90;92.20;;;;;;5035861;28;19909;-78
2023/02/20 01:58:44;;;;;;;;;;;7.90;92.30;;;;;;5041760;28;19936;-77
2023/02/20 02:01:10;;;;;;;;;;;7.90;92.40;;;;;;5043388;28;20210;-78
2023/02/20 02:03:38;;;;;;;;;;;7.90;92.40;;;;;;5042384;28;19913;-76
2023/02/20 02:06:06;;;;;;;;;;;7.90;92.30;;;;;;5037438;28;19917;-79
2023/02/20 02:08:32;;;;;;;;;;;7.90;92.50;;;;;;5037245;28;19959;-79
2023/02/20 02:10:58;;;;;;;;;;;7.90;92.40;;;;;;5036487;28;19936;-79
2023/02/20 02:13:23;;;;;;;;;;;7.90;92.60;;;;;;5036518;28;20326;-79
2023/02/20 02:15:53;;;;;;;;;;;7.90;92.50;;;;;;5036930;28;19959;-79
2023/02/20 02:18:48;;;;;;;;;;;7.90;92.70;;;;;;5037748;28;19955;-77
2023/02/20 02:21:31;;;;;;;;;;;7.80;92.60;;;;;;5011430;28;19916;-78
2023/02/20 02:24:00;;;;;;;;;;;7.90;92.70;;;;;;5022192;28;20012;-79
2023/02/20 02:26:28;;;;;;;;;;;7.80;92.70;;;;;;5031497;28;20224;-79
2023/02/20 02:29:05;;;;;;;;;;;7.80;92.80;;;;;;5042612;28;19913;-79
2023/02/20 02:31:49;;;;;;;;;;;7.80;92.80;;;;;;5041507;28;19909;-78
2023/02/20 02:34:15;;;;;;;;;;;7.80;92.80;;;;;;5041831;28;19909;-78
2023/02/20 02:36:40;;;;;;;;;;;7.80;92.90;;;;;;5039923;28;19913;-78
2023/02/20 02:39:12;;;;;;;;;;;7.80;92.90;;;;;;5044620;28;19948;-78
2023/02/20 02:41:43;;;;;;;;;;;7.80;92.90;;;;;;5045732;28;19913;-78
2023/02/20 02:44:38;;;;;;;;;;;7.80;92.90;;;;;;5044885;28;19909;-78
2023/02/20 02:47:10;;;;;;;;;;;7.80;92.90;;;;;;5020919;28;19953;-76
2023/02/20 02:50:14;;;;;;;;;;;7.90;92.90;;;;;;5038313;28;19947;-79
2023/02/20 02:52:49;;;;;;;;;;;7.90;92.80;;;;;;4976750;28;20423;-77
2023/02/20 02:55:16;;;;;;;;;;;7.80;92.90;;;;;;4962419;28;19938;-77
2023/02/20 02:57:42;;;;;;;;;;;7.80;92.80;;;;;;5013923;28;19955;-77
2023/02/20 03:00:25;;;;;;;;;;;7.80;92.90;;;;;;5040751;28;19982;-77
2023/02/20 03:02:59;;;;;;;;;;;7.80;93.00;;;;;;5040266;28;19988;-78
2023/02/20 03:05:38;;;;;;;;;;;7.80;93.00;;;;;;5046608;28;19924;-78
2023/02/20 03:08:13;;;;;;;;;;;7.80;93.00;;;;;;5042016;28;20011;-78
2023/02/20 03:10:42;;;;;;;;;;;7.80;92.90;;;;;;5042175;28;19913;-77
2023/02/20 03:13:11;;;;;;;;;;;7.80;93.00;;;;;;5048996;28;19917;-77
2023/02/20 03:15:43;;;;;;;;;;;7.80;93.10;;;;;;5046733;28;19935;-78
2023/02/20 03:18:14;;;;;;;;;;;7.80;93.10;;;;;;5045950;28;20446;-79
2023/02/20 03:20:52;;;;;;;;;;;7.80;93.20;;;;;;5027184;28;19910;-79
2023/02/20 03:23:30;;;;;;;;;;;7.80;93.20;;;;;;5020564;28;19913;-79
2023/02/20 03:26:08;;;;;;;;;;;7.80;93.20;;;;;;5020952;28;19944;-78
2023/02/20 03:28:38;;;;;;;;;;;7.80;93.30;;;;;;5029170;28;20179;-80
2023/02/20 03:31:07;;;;;;;;;;;7.80;93.20;;;;;;5042645;28;20012;-79
2023/02/20 03:44:48;;;;;;;;;;;7.80;93.30;;;;;;5021766;28;19948;-77
2023/02/20 03:47:17;;;;;;;;;;;7.80;93.20;;;;;;5036741;28;20323;-79
2023/02/20 03:49:44;;;;;;;;;;;7.70;93.30;;;;;;5038739;28;20290;-78
2023/02/20 03:52:10;;;;;;;;;;;7.60;93.30;;;;;;5023061;28;19909;-79
2023/02/20 03:54:35;;;;;;;;;;;7.60;93.40;;;;;;5021117;28;20034;-79
2023/02/20 03:57:08;;;;;;;;;;;7.50;93.60;;;;;;5021110;28;19916;-79
2023/02/20 03:59:34;;;;;;;;;;;7.30;93.70;;;;;;5029303;28;19935;-77
2023/02/20 04:02:02;;;;;;;;;;;7.20;94.00;;;;;;5041813;28;20013;-79
2023/02/20 04:04:39;;;;;;;;;;;7.10;94.20;;;;;;5039619;28;19932;-78
2023/02/20 04:07:07;;;;;;;;;;;7.10;94.50;;;;;;5043056;28;19917;-77
2023/02/20 04:09:33;;;;;;;;;;;7.00;94.70;;;;;;5040399;28;19917;-78
2023/02/20 04:12:03;;;;;;;;;;;7.10;94.60;;;;;;5043159;28;19947;-78
2023/02/20 04:14:28;;;;;;;;;;;7.10;94.70;;;;;;5045243;28;19909;-77
2023/02/20 04:16:56;;;;;;;;;;;7.00;94.70;;;;;;5045936;28;19909;-79
2023/02/20 04:19:22;;;;;;;;;;;7.00;94.80;;;;;;5038677;28;19910;-78
2023/02/20 04:21:52;;;;;;;;;;;7.00;94.90;;;;;;5050870;28;19931;-78
2023/02/20 04:24:22;;;;;;;;;;;6.90;94.90;;;;;;5043440;28;19968;-77
2023/02/20 04:26:48;;;;;;;;;;;6.90;95.00;;;;;;5039633;28;19909;-77
2023/02/20 04:29:13;;;;;;;;;;;6.90;95.20;;;;;;5043463;28;19905;-76
2023/02/20 04:31:39;;;;;;;;;;;6.90;95.20;;;;;;5052200;28;19917;-77
2023/02/20 04:34:04;;;;;;;;;;;6.90;95.20;;;;;;5053149;28;19916;-77
2023/02/20 04:36:30;;;;;;;;;;;6.80;95.30;;;;;;5048934;28;19909;-77
2023/02/20 04:38:56;;;;;;;;;;;6.80;95.30;;;;;;5035427;28;19921;-77
2023/02/20 04:41:21;;;;;;;;;;;6.80;95.40;;;;;;5030874;28;19941;-76
2023/02/20 04:43:48;;;;;;;;;;;6.80;95.50;;;;;;5052064;28;19920;-76
2023/02/20 04:46:13;;;;;;;;;;;6.80;95.50;;;;;;5052744;28;19931;-77
2023/02/20 04:48:39;;;;;;;;;;;6.70;95.60;;;;;;5038833;28;20360;-77
2023/02/20 04:51:04;;;;;;;;;;;6.70;95.70;;;;;;5031910;28;19917;-77
2023/02/20 04:53:30;;;;;;;;;;;6.70;95.70;;;;;;5015535;28;20332;-77
2023/02/20 04:55:55;;;;;;;;;;;6.60;95.70;;;;;;5015045;28;19909;-78
2023/02/20 04:58:21;;;;;;;;;;;6.60;95.90;;;;;;5042199;28;19913;-78
2023/02/20 05:00:47;;;;;;;;;;;6.60;95.90;;;;;;5045071;28;19910;-77
2023/02/20 05:03:12;;;;;;;;;;;6.60;95.90;;;;;;5043871;28;20371;-78
2023/02/20 05:05:38;;;;;;;;;;;6.60;96.00;;;;;;5044609;28;19916;-78
2023/02/20 05:08:04;;;;;;;;;;;6.60;96.10;;;;;;5043729;28;19943;-78
2023/02/20 05:10:31;;;;;;;;;;;6.50;96.20;;;;;;5046434;28;19916;-77
2023/02/20 05:12:57;;;;;;;;;;;6.50;96.40;;;;;;5047609;28;19897;-79
2023/02/20 05:15:23;;;;;;;;;;;6.50;96.40;;;;;;5046304;28;19996;-77
2023/02/20 05:17:49;;;;;;;;;;;6.50;96.50;;;;;;5045739;28;19913;-77
2023/02/20 05:20:15;;;;;;;;;;;6.40;96.50;;;;;;5029638;28;19913;-76
2023/02/20 05:22:40;;;;;;;;;;;6.40;96.60;;;;;;5042140;28;19914;-77
2023/02/20 05:25:06;;;;;;;;;;;6.50;96.50;;;;;;5043722;28;19951;-78
2023/02/20 05:27:32;;;;;;;;;;;6.40;96.60;;;;;;5034785;28;19967;-77
2023/02/20 05:29:59;;;;;;;;;;;6.30;96.70;;;;;;5034990;28;19918;-76
2023/02/20 05:32:25;;;;;;;;;;;6.30;96.70;;;;;;5033255;28;19920;-76
2023/02/20 05:34:51;;;;;;;;;;;6.40;96.80;;;;;;5033992;28;19909;-76
2023/02/20 05:37:17;;;;;;;;;;;6.30;96.90;;;;;;5034191;28;19931;-76
2023/02/20 05:39:44;;;;;;;;;;;6.30;96.90;;;;;;5033677;28;19921;-76
2023/02/20 05:42:09;;;;;;;;;;;6.30;96.90;;;;;;5034077;28;19995;-76
2023/02/20 05:44:35;;;;;;;;;;;6.30;96.90;;;;;;5033850;28;20433;-76
2023/02/20 05:47:01;;;;;;;;;;;6.20;97.00;;;;;;5033986;28;19909;-77
2023/02/20 05:49:26;;;;;;;;;;;6.20;97.00;;;;;;5026146;28;19918;-77
2023/02/20 05:51:54;;;;;;;;;;;6.20;97.10;;;;;;5022171;28;19952;-77
2023/02/20 05:54:20;;;;;;;;;;;6.20;97.10;;;;;;5013950;28;19914;-77
2023/02/20 05:56:46;;;;;;;;;;;6.20;97.20;;;;;;5013622;28;19944;-77
2023/02/20 05:59:12;;;;;;;;;;;6.20;97.30;;;;;;5022013;28;19913;-77
2023/02/20 06:01:38;;;;;;;;;;;6.20;97.30;;;;;;5032040;28;20067;-77
2023/02/20 06:04:03;;;;;;;;;;;6.10;97.20;;;;;;5033267;28;19975;-77
2023/02/20 06:06:39;;;;;;;;;;;6.10;97.40;;;;;;5033568;28;19932;-77
2023/02/20 06:09:09;;;;;;;;;;;6.10;97.40;;;;;;5033199;28;20063;-77
2023/02/20 06:11:35;;;;;;;;;;;6.10;97.50;;;;;;5034723;28;20354;-77
2023/02/20 06:14:01;;;;;;;;;;;6.10;97.50;;;;;;5033831;28;19917;-77
2023/02/20 06:16:27;;;;;;;;;;;6.00;97.60;;;;;;5035897;28;20408;-76
2023/02/20 06:18:53;;;;;;;;;;;6.00;97.60;;;;;;5034115;28;19919;-76
2023/02/20 06:21:22;;;;;;;;;;;6.00;97.80;;;;;;5027071;28;19920;-77
2023/02/20 06:23:48;;;;;;;;;;;6.10;97.80;;;;;;5033588;28;19909;-76
2023/02/20 06:26:14;;;;;;;;;;;6.10;97.80;;;;;;5027776;28;19914;-77
2023/02/20 06:28:40;;;;;;;;;;;6.00;97.80;;;;;;5031414;28;19974;-76
2023/02/20 06:31:05;;;;;;;;;;;6.10;97.80;;;;;;5033216;28;19917;-77
2023/02/20 06:33:31;;;;;;;;;;;6.10;97.70;;;;;;5034198;28;19916;-77
2023/02/20 06:35:57;;;;;;;;;;;6.20;97.60;;;;;;5029801;28;20380;-77
2023/02/20 06:38:23;;;;;;;;;;;6.20;97.60;;;;;;5025067;28;19960;-77
2023/02/20 06:40:49;;;;;;;;;;;6.20;97.50;;;;;;5034625;28;19913;-77
2023/02/20 06:43:14;;;;;;;;;;;6.30;97.50;;;;;;5037601;28;19910;-77
2023/02/20 06:45:40;;;;;;;;;;;6.30;97.30;;;;;;5045097;28;19909;-76
2023/02/20 06:48:05;;;;;;;;;;;6.30;97.20;;;;;;5063340;28;20371;-77
2023/02/20 06:50:31;;;;;;;;;;;6.30;97.10;;;;;;5036965;28;19962;-76
2023/02/20 06:52:57;;;;;;;;;;;6.30;97.00;;;;;;5039316;28;19913;-78
2023/02/20 06:55:22;;;;;;;;;;;6.30;97.00;;;;;;5036425;28;19933;-77
2023/02/20 06:57:48;;;;;;;;;;;6.40;97.00;;;;;;5038581;28;19925;-77
2023/02/20 07:00:14;;;;;;;;;;;6.40;96.90;;;;;;5041208;28;19909;-78
2023/02/20 07:02:39;;;;;;;;;;;6.40;96.80;;;;;;5038956;28;19913;-78
2023/02/20 07:05:05;;;;;;;;;;;6.40;96.60;;;;;;5035904;28;19917;-77
2023/02/20 07:07:31;;;;;;;;;;;6.50;96.30;;;;;;5028286;28;19913;-77
2023/02/20 07:09:58;;;;;;;;;;;6.50;96.20;;;;;;5040850;28;19914;-79
2023/02/20 07:12:24;;;;;;;;;;;6.50;96.10;;;;;;5037946;28;20393;-77
2023/02/20 07:14:50;;;;;;;;;;;6.60;96.10;;;;;;5036797;28;19996;-78
2023/02/20 07:17:16;;;;;;;;;;;6.60;96.00;;;;;;5028748;28;19966;-77
2023/02/20 07:19:41;;;;;;;;;;;6.70;96.00;;;;;;5043042;28;20377;-76
2023/02/20 07:22:06;;;;;;;;;;;6.70;95.80;;;;;;5035014;28;20342;-76
2023/02/20 07:24:35;;;;;;;;;;;6.80;95.50;;;;;;5052504;28;19952;-77
2023/02/20 07:27:01;;;;;;;;;;;7.00;95.40;;;;;;5030350;28;20339;-78
2023/02/20 07:29:27;;;;;;;;;;;7.20;95.20;;;;;;5039152;28;19913;-78
2023/02/20 07:31:52;;;;;;;;;;;7.30;94.90;;;;;;5039679;28;20368;-78
2023/02/20 07:34:18;;;;;;;;;;;7.50;94.50;;;;;;5038987;28;19951;-77
2023/02/20 07:36:43;;;;;;;;;;;7.60;94.10;;;;;;5032168;28;20074;-81
2023/02/20 07:39:09;;;;;;;;;;;7.70;93.90;;;;;;5041027;28;19913;-81
2023/02/20 07:41:35;;;;;;;;;;;7.70;93.60;;;;;;5044365;28;19917;-81
2023/02/20 07:44:01;;;;;;;;;;;7.70;93.20;;;;;;5042309;28;19943;-78
2023/02/20 07:46:27;;;;;;;;;;;7.60;92.80;;;;;;5042869;28;19913;-82
2023/02/20 07:48:52;;;;;;;;;;;7.60;93.10;;;;;;5040541;28;19985;-80
2023/02/20 07:51:18;;;;;;;;;;;7.50;93.20;;;;;;5054639;28;19917;-79
2023/02/20 07:53:47;;;;;;;;;;;7.40;93.40;;;;;;5043474;28;19918;-80
2023/02/20 07:56:13;;;;;;;;;;;7.40;93.60;;;;;;5043151;28;20371;-79
2023/02/20 07:58:38;;;;;;;;;;;7.30;93.50;;;;;;5045017;28;20017;-78
2023/02/20 08:01:04;;;;;;;;;;;7.40;93.70;;;;;;5042933;28;19913;-78
2023/02/20 08:03:29;;;;;;;;;;;7.50;93.70;;;;;;5042354;28;19916;-79
2023/02/20 08:05:55;;;;;;;;;;;7.70;93.60;;;;;;5044951;28;19917;-79
2023/02/20 08:08:23;;;;;;;;;;;7.90;93.10;;;;;;5041983;28;19913;-79
2023/02/20 08:10:49;;;;;;;;;;;8.20;92.60;;;;;;5041530;28;19920;-79
2023/02/20 08:13:14;;;;;;;;;;;8.50;92.00;;;;;;5042003;28;19913;-79
2023/02/20 08:15:40;;;;;;;;;;;8.90;91.40;;;;;;5043015;28;19921;-79
2023/02/20 08:18:06;;;;;;;;;;;9.20;90.50;;;;;;5042139;28;19909;-79
2023/02/20 08:20:31;;;;;;;;;;;9.30;88.90;;;;;;5024827;28;20003;-79
2023/02/20 08:22:59;;;;;;;;;;;9.30;88.50;;;;;;5040390;28;19979;-78
2023/02/20 08:25:25;;;;;;;;;;;9.40;86.90;;;;;;5042688;28;19909;-78
2023/02/20 08:27:50;;;;;;;;;;;9.40;86.60;;;;;;5043016;28;20261;-78
2023/02/20 08:30:18;;;;;;;;;;;9.50;85.20;;;;;;5040243;28;19917;-79
2023/02/20 08:32:44;;;;;;;;;;;9.30;85.00;;;;;;5042667;28;19913;-79
2023/02/20 08:35:09;;;;;;;;;;;9.20;85.80;;;;;;5041320;28;19921;-80
2023/02/20 08:37:35;;;;;;;;;;;9.10;86.30;;;;;;5042494;28;19909;-78
2023/02/20 08:40:05;;;;;;;;;;;9.30;86.10;;;;;;5040763;28;19965;-81
2023/02/20 08:42:31;;;;;;;;;;;9.50;84.80;;;;;;5043763;28;19918;-80
2023/02/20 08:44:56;;;;;;;;;;;9.70;84.50;;;;;;5041964;28;19919;-79
2023/02/20 08:47:22;;;;;;;;;;;10.00;82.80;;;;;;5055128;28;19936;-76
2023/02/20 08:49:48;;;;;;;;;;;10.10;81.30;;;;;;5039105;28;19917;-78
2023/02/20 08:52:13;;;;;;;;;;;10.20;80.20;;;;;;5040886;28;19920;-77
2023/02/20 08:54:39;;;;;;;;;;;10.10;80.50;;;;;;5049154;28;20051;-77
2023/02/20 08:57:04;;;;;;;;;;;10.10;80.70;;;;;;5053311;28;19909;-78
2023/02/20 08:59:32;;;;;;;;;;;10.20;80.60;;;;;;5051473;28;20470;-77
2023/02/20 09:01:57;;;;;;;;;;;10.20;80.10;;;;;;5050000;28;19909;-77
2023/02/20 09:04:23;;;;;;;;;;;10.10;79.90;;;;;;5051038;28;20276;-78
2023/02/20 09:06:48;;;;;;;;;;;10.00;80.20;;;;;;5049815;28;19905;-77
2023/02/20 09:09:17;;;;;;;;;;;9.90;81.20;;;;;;5041294;28;19910;-78
2023/02/20 09:11:42;;;;;;;;;;;9.80;81.30;;;;;;5040133;28;19909;-78
2023/02/20 09:14:08;;;;;;;;;;;9.80;81.30;;;;;;5039823;28;20012;-79
2023/02/20 09:16:33;;;;;;;;;;;10.10;81.30;;;;;;5039836;28;20372;-80
2023/02/20 09:18:59;;;;;;;;;;;10.50;80.20;;;;;;5037011;28;20192;-78
2023/02/20 09:21:27;;;;;;;;;;;10.90;78.70;;;;;;5028403;28;19909;-79
2023/02/20 09:23:53;;;;;;;;;;;11.30;78.20;;;;;;5032310;28;19968;-79
2023/02/20 09:26:19;;;;;;;;;;;11.50;75.90;;;;;;5039418;28;19968;-80
2023/02/20 09:28:45;;;;;;;;;;;11.70;75.10;;;;;;5040914;28;20323;-77
2023/02/20 09:31:10;;;;;;;;;;;11.90;74.60;;;;;;5042793;28;19925;-79
2023/02/20 09:33:36;;;;;;;;;;;12.10;73.60;;;;;;5037720;28;19973;-80
2023/02/20 09:36:01;;;;;;;;;;;12.30;72.40;;;;;;5037116;28;20393;-79
2023/02/20 09:38:28;;;;;;;;;;;12.50;72.30;;;;;;5030740;28;19920;-80
2023/02/20 09:40:56;;;;;;;;;;;12.70;71.40;;;;;;5041931;28;19920;-79
2023/02/20 09:43:40;;;;;;;;;;;12.90;70.50;;;;;;5041198;28;19913;-80
2023/02/20 09:46:11;;;;;;;;;;;12.90;69.20;;;;;;5040169;28;19913;-77
2023/02/20 09:48:46;;;;;;;;;;;13.00;68.70;;;;;;5040007;28;20000;-79
2023/02/20 09:51:15;;;;;;;;;;;13.00;68.70;;;;;;5030437;28;20080;-80
2023/02/20 09:53:48;;;;;;;;;;;13.20;68.40;;;;;;5034153;28;19917;-80
2023/02/20 09:56:19;;;;;;;;;;;13.60;67.40;;;;;;5039815;28;19973;-80
2023/02/20 09:58:53;;;;;;;;;;;13.80;65.60;;;;;;5025977;28;19913;-80
2023/02/20 10:01:20;;;;;;;;;;;13.90;64.10;;;;;;5042037;28;20338;-78
2023/02/20 10:03:49;;;;;;;;;;;13.40;64.70;;;;;;5042784;28;19931;-79
2023/02/20 10:06:16;;;;;;;;;;;13.30;66.10;;;;;;5042056;28;20319;-80
2023/02/20 10:08:42;;;;;;;;;;;13.30;66.50;;;;;;5026280;28;19925;-78
2023/02/20 10:11:09;;;;;;;;;;;13.30;65.40;;;;;;5044346;28;19921;-79
2023/02/20 10:13:53;;;;;;;;;;;13.40;65.70;;;;;;5040374;28;19909;-80
2023/02/20 10:16:38;;;;;;;;;;;13.30;65.80;;;;;;5043577;28;19916;-81
2023/02/20 10:19:14;;;;;;;;;;;13.50;65.90;;;;;;5042277;28;19928;-78
2023/02/20 10:21:39;;;;;;;;;;;13.70;64.50;;;;;;5053527;28;19968;-79
2023/02/20 10:24:08;;;;;;;;;;;13.80;65.20;;;;;;5038299;28;19952;-80
2023/02/20 10:26:36;;;;;;;;;;;14.00;63.70;;;;;;5042574;28;20065;-79
2023/02/20 10:29:16;;;;;;;;;;;14.00;63.60;;;;;;5047379;28;19931;-79
2023/02/20 10:31:51;;;;;;;;;;;14.00;63.70;;;;;;5049706;28;19965;-78
2023/02/20 10:34:22;;;;;;;;;;;14.00;62.70;;;;;;5061676;28;19902;-77
2023/02/20 10:36:51;;;;;;;;;;;14.00;62.50;;;;;;5036359;28;19918;-76
2023/02/20 10:39:18;;;;;;;;;;;13.80;62.30;;;;;;5049600;28;20251;-78
2023/02/20 10:41:44;;;;;;;;;;;13.60;62.90;;;;;;5047596;28;19952;-80
2023/02/20 10:44:28;;;;;;;;;;;13.30;63.60;;;;;;5044374;28;19928;-79
2023/02/20 10:47:12;;;;;;;;;;;13.10;63.80;;;;;;5045093;28;19909;-80
2023/02/20 10:49:42;;;;;;;;;;;12.90;64.60;;;;;;5036273;28;19929;-77
2023/02/20 10:52:11;;;;;;;;;;;12.70;65.30;;;;;;5045352;28;19909;-78
2023/02/20 10:54:41;;;;;;;;;;;12.60;65.30;;;;;;5046658;28;19909;-79
2023/02/20 10:57:06;;;;;;;;;;;12.50;66.40;;;;;;5045131;28;19909;-79
2023/02/20 11:00:01;;;;;;;;;;;12.60;66.00;;;;;;5064772;28;19924;-80
2023/02/20 11:02:31;;;;;;;;;;;12.70;66.20;;;;;;5028035;28;19917;-79
2023/02/20 11:05:10;;;;;;;;;;;13.00;65.10;;;;;;5044177;28;19916;-80
2023/02/20 11:07:38;;;;;;;;;;;13.20;65.00;;;;;;5042787;28;19909;-77
2023/02/20 11:10:03;;;;;;;;;;;13.40;64.40;;;;;;5041441;28;20016;-79
2023/02/20 11:12:32;;;;;;;;;;;13.50;64.20;;;;;;5041020;28;20287;-79
2023/02/20 11:14:59;;;;;;;;;;;13.50;64.40;;;;;;5042383;28;19955;-80
2023/02/20 11:17:26;;;;;;;;;;;13.60;63.90;;;;;;5042023;28;19910;-78
2023/02/20 11:19:53;;;;;;;;;;;13.60;63.80;;;;;;5038564;28;19924;-79
2023/02/20 11:22:37;;;;;;;;;;;13.80;63.50;;;;;;5021991;28;19914;-79
2023/02/20 11:25:29;;;;;;;;;;;13.80;62.90;;;;;;5021700;28;19916;-79
2023/02/20 11:27:55;;;;;;;;;;;13.90;62.90;;;;;;5020016;28;19967;-80
2023/02/20 11:30:30;;;;;;;;;;;14.10;63.10;;;;;;5032370;28;19922;-79
2023/02/20 11:33:18;;;;;;;;;;;14.20;62.50;;;;;;5042920;28;19905;-81
2023/02/20 11:35:45;;;;;;;;;;;14.30;61.10;;;;;;5041047;28;19953;-77
2023/02/20 11:38:16;;;;;;;;;;;14.30;60.80;;;;;;5043806;28;19912;-78
2023/02/20 11:40:42;;;;;;;;;;;14.20;61.40;;;;;;5042513;28;19917;-79
2023/02/20 11:43:09;;;;;;;;;;;14.30;60.90;;;;;;5042471;28;19929;-79
2023/02/20 11:45:35;;;;;;;;;;;14.30;60.50;;;;;;5043959;28;19909;-79
2023/02/20 11:48:14;;;;;;;;;;;14.30;60.60;;;;;;5045305;28;20291;-77
2023/02/20 11:50:43;;;;;;;;;;;14.40;61.20;;;;;;5037067;28;19913;-77
2023/02/20 11:53:16;;;;;;;;;;;14.60;59.70;;;;;;5029342;28;19913;-78
2023/02/20 11:55:42;;;;;;;;;;;15.00;59.20;;;;;;5045360;28;19914;-78
2023/02/20 11:58:09;;;;;;;;;;;15.20;58.70;;;;;;5030498;28;19908;-77
2023/02/20 12:00:46;;;;;;;;;;;15.30;58.70;;;;;;5033352;28;19917;-79
2023/02/20 12:03:13;;;;;;;;;;;15.30;57.80;;;;;;5050869;28;19978;-80
2023/02/20 12:05:40;;;;;;;;;;;15.20;58.00;;;;;;5047690;28;19982;-78
2023/02/20 12:08:37;;;;;;;;;;;15.40;58.80;;;;;;5047096;28;20060;-79
2023/02/20 12:11:10;;;;;;;;;;;15.70;56.70;;;;;;5033387;28;19921;-79
2023/02/20 12:13:40;;;;;;;;;;;16.00;56.30;;;;;;5045784;28;19913;-79
2023/02/20 12:16:29;;;;;;;;;;;15.90;55.60;;;;;;5043563;28;19909;-80
2023/02/20 12:19:15;;;;;;;;;;;15.70;56.30;;;;;;5033724;28;19916;-79
2023/02/20 12:21:59;;;;;;;;;;;15.50;57.00;;;;;;5033827;28;19917;-78
2023/02/20 12:24:24;;;;;;;;;;;15.50;56.70;;;;;;5041381;28;19982;-78
2023/02/20 12:26:52;;;;;;;;;;;15.40;57.20;;;;;;5041600;28;20344;-79
2023/02/20 12:29:26;;;;;;;;;;;15.40;56.30;;;;;;5043179;28;19993;-80
2023/02/20 12:32:10;;;;;;;;;;;15.40;56.20;;;;;;5046826;28;19918;-81
2023/02/20 12:34:39;;;;;;;;;;;15.50;56.60;;;;;;5040287;28;19913;-81
2023/02/20 12:37:22;;;;;;;;;;;15.60;55.90;;;;;;5041843;28;19924;-78
2023/02/20 12:40:07;;;;;;;;;;;15.60;56.20;;;;;;5039911;28;19964;-80
2023/02/20 12:42:38;;;;;;;;;;;15.60;56.10;;;;;;5041489;28;19924;-79
2023/02/20 12:45:15;;;;;;;;;;;15.70;55.20;;;;;;5041338;28;19913;-80
2023/02/20 12:47:42;;;;;;;;;;;15.70;55.00;;;;;;5042264;28;19920;-79
2023/02/20 12:50:11;;;;;;;;;;;15.60;54.80;;;;;;5029219;28;19918;-82
2023/02/20 12:52:55;;;;;;;;;;;15.60;54.80;;;;;;5039877;28;19909;-81
2023/02/20 12:55:21;;;;;;;;;;;15.60;55.20;;;;;;5041606;28;19999;-81
2023/02/20 12:57:58;;;;;;;;;;;15.50;55.50;;;;;;5049476;28;19999;-82
2023/02/20 13:00:31;;;;;;;;;;;15.60;55.60;;;;;;5042754;28;19919;-78
2023/02/20 13:03:06;;;;;;;;;;;15.70;55.00;;;;;;5042748;28;20861;-79
2023/02/20 13:05:36;;;;;;;;;;;15.70;54.60;;;;;;5038120;28;19924;-80
2023/02/20 13:08:06;;;;;;;;;;;15.60;55.00;;;;;;5040758;28;19936;-79
2023/02/20 13:10:33;;;;;;;;;;;15.40;55.60;;;;;;5027711;28;19932;-82
2023/02/20 13:12:59;;;;;;;;;;;15.40;55.60;;;;;;5041845;28;19922;-81
2023/02/20 13:15:44;;;;;;;;;;;15.40;55.40;;;;;;5041222;28;19913;-81
2023/02/20 13:18:16;;;;;;;;;;;15.50;55.80;;;;;;5041283;28;19959;-81
2023/02/20 13:20:46;;;;;;;;;;;15.70;55.20;;;;;;5032241;28;19960;-79
2023/02/20 13:23:15;;;;;;;;;;;15.70;54.90;;;;;;5030276;28;19913;-79
2023/02/20 13:25:42;;;;;;;;;;;15.80;55.30;;;;;;5043146;28;19917;-79
2023/02/20 13:28:19;;;;;;;;;;;15.90;54.80;;;;;;5040230;28;19909;-79
2023/02/20 13:31:04;;;;;;;;;;;15.90;54.30;;;;;;5045040;28;19928;-80
2023/02/20 13:33:30;;;;;;;;;;;15.90;54.70;;;;;;5040680;28;19913;-80
2023/02/20 13:35:56;;;;;;;;;;;15.90;54.70;;;;;;5044835;28;19959;-78
2023/02/20 13:38:22;;;;;;;;;;;15.90;55.00;;;;;;5047230;28;19916;-77
2023/02/20 13:40:54;;;;;;;;;;;16.00;54.20;;;;;;5048079;28;19936;-77
2023/02/20 13:43:26;;;;;;;;;;;16.00;54.40;;;;;;5047982;28;19936;-78
2023/02/20 13:46:12;;;;;;;;;;;16.10;54.40;;;;;;5044796;28;19953;-78
2023/02/20 13:48:43;;;;;;;;;;;16.20;53.80;;;;;;5046825;28;19957;-78
2023/02/20 13:51:15;;;;;;;;;;;16.40;52.70;;;;;;5041911;28;19905;-78
2023/02/20 13:53:46;;;;;;;;;;;16.50;52.30;;;;;;5054280;28;20059;-79
2023/02/20 13:56:17;;;;;;;;;;;16.60;51.90;;;;;;5048397;28;19914;-79
2023/02/20 13:58:43;;;;;;;;;;;16.60;51.20;;;;;;5029280;28;19952;-78
2023/02/20 14:01:09;;;;;;;;;;;16.50;51.40;;;;;;5047899;28;19913;-77
2023/02/20 14:03:34;;;;;;;;;;;16.30;51.90;;;;;;5047989;28;19932;-80
2023/02/20 14:06:11;;;;;;;;;;;16.30;51.70;;;;;;5044482;28;19921;-79
2023/02/20 14:08:41;;;;;;;;;;;16.20;52.30;;;;;;5038012;28;20136;-80
2023/02/20 14:11:11;;;;;;;;;;;16.20;52.80;;;;;;5032582;28;20027;-80
2023/02/20 14:13:38;;;;;;;;;;;16.20;52.70;;;;;;5039150;28;19913;-80
2023/02/20 14:16:04;;;;;;;;;;;16.20;53.10;;;;;;5038593;28;19913;-79
2023/02/20 14:18:32;;;;;;;;;;;16.20;52.70;;;;;;5038227;28;20307;-79
2023/02/20 14:21:08;;;;;;;;;;;16.20;52.50;;;;;;5031546;28;19913;-79
2023/02/20 14:23:34;;;;;;;;;;;16.20;52.70;;;;;;5038134;28;19960;-79
2023/02/20 14:26:05;;;;;;;;;;;16.10;53.10;;;;;;5038153;28;20007;-80
2023/02/20 14:28:35;;;;;;;;;;;15.90;53.60;;;;;;5053382;28;19916;-78
2023/02/20 14:31:21;;;;;;;;;;;15.70;53.90;;;;;;5023927;28;20344;-81
2023/02/20 14:33:48;;;;;;;;;;;15.50;54.70;;;;;;5038265;28;19913;-80
2023/02/20 14:36:19;;;;;;;;;;;15.30;55.50;;;;;;5039641;28;20331;-78
2023/02/20 14:38:50;;;;;;;;;;;15.20;55.80;;;;;;5038307;28;20012;-79
2023/02/20 14:41:17;;;;;;;;;;;15.20;56.00;;;;;;5039037;28;19999;-79
2023/02/20 14:43:43;;;;;;;;;;;15.30;56.20;;;;;;5043078;28;20051;-80
2023/02/20 14:46:19;;;;;;;;;;;15.30;56.10;;;;;;5036959;28;19913;-80